createdAt,value
2022-08-07T00:04:00.588Z,15.43
2022-08-07T00:06:33.350Z,15.41
2022-08-07T00:09:16.272Z,15.41
2022-08-07T00:11:54.144Z,15.30
2022-08-07T00:14:25.474Z,15.26
2022-08-07T00:16:52.631Z,15.19
2022-08-07T00:19:21.388Z,15.14
2022-08-07T00:21:57.083Z,15.13
2022-08-07T00:24:28.565Z,15.10
2022-08-07T00:27:07.512Z,15.01
2022-08-07T00:29:37.128Z,14.98
2022-08-07T00:32:05.758Z,14.91
2022-08-07T00:34:35.364Z,14.86
2022-08-07T00:37:05.015Z,14.87
2022-08-07T00:39:32.294Z,14.87
2022-08-07T00:42:02.444Z,14.84
2022-08-07T00:44:33.038Z,14.83
2022-08-07T00:47:00.822Z,14.80
2022-08-07T00:50:19.916Z,14.80
2022-08-07T00:52:19.916Z,14.81
2022-08-07T00:54:55.071Z,14.74
2022-08-07T00:57:25.816Z,14.69
2022-08-07T00:59:53.740Z,14.56
2022-08-07T01:02:29.195Z,14.56
2022-08-07T01:04:58.814Z,14.54
2022-08-07T01:07:27.640Z,14.56
2022-08-07T01:10:05.935Z,14.54
2022-08-07T01:12:40.124Z,14.49
2022-08-07T01:15:22.678Z,14.46
2022-08-07T01:18:03.010Z,14.43
2022-08-07T01:20:35.345Z,14.41
2022-08-07T01:23:12.707Z,14.34
2022-08-07T01:25:55.280Z,14.33
2022-08-07T01:28:23.679Z,14.31
2022-08-07T01:30:52.101Z,14.25
2022-08-07T01:33:18.662Z,14.20
2022-08-07T01:35:53.234Z,14.13
2022-08-07T01:38:25.378Z,14.18
2022-08-07T01:40:59.662Z,14.14
2022-08-07T01:43:34.800Z,14.16
2022-08-07T01:46:05.726Z,14.09
2022-08-07T01:48:35.445Z,14.01
2022-08-07T01:52:01.032Z,13.95
2022-08-07T01:54:12.807Z,13.92
2022-08-07T01:57:24.300Z,13.90
2022-08-07T01:59:57.024Z,13.83
2022-08-07T02:03:12.059Z,13.86
2022-08-07T02:06:00.008Z,13.88
2022-08-07T02:08:30.602Z,13.91
2022-08-07T02:10:59.685Z,13.91
2022-08-07T02:13:58.277Z,13.85
2022-08-07T02:16:19.738Z,13.72
2022-08-07T02:18:48.098Z,13.72
2022-08-07T02:21:19.837Z,13.68
2022-08-07T02:23:47.655Z,13.64
2022-08-07T02:26:32.831Z,13.61
2022-08-07T02:29:02.771Z,13.56
2022-08-07T02:31:30.973Z,13.51
2022-08-07T02:34:03.446Z,13.47
2022-08-07T02:36:33.783Z,13.44
2022-08-07T02:39:16.253Z,13.44
2022-08-07T02:41:50.521Z,13.43
2022-08-07T02:44:18.044Z,13.32
2022-08-07T02:46:52.715Z,13.33
2022-08-07T02:49:55.614Z,13.29
2022-08-07T02:52:10.648Z,13.29
2022-08-07T02:55:00.981Z,13.28
2022-08-07T02:57:34.065Z,13.28
2022-08-07T03:00:05.108Z,13.25
2022-08-07T03:02:37.991Z,13.18
2022-08-07T03:05:22.986Z,13.21
2022-08-07T03:08:07.462Z,13.18
2022-08-07T03:10:46.215Z,13.13
2022-08-07T03:13:19.288Z,13.11
2022-08-07T03:15:56.742Z,13.06
2022-08-07T03:18:34.565Z,13.05
2022-08-07T03:21:08.497Z,13.05
2022-08-07T03:24:21.038Z,13.03
2022-08-07T03:26:30.195Z,12.97
2022-08-07T03:28:58.791Z,12.86
2022-08-07T03:31:43.255Z,12.87
2022-08-07T03:34:18.535Z,12.90
2022-08-07T03:36:50.588Z,12.88
2022-08-07T03:39:45.990Z,12.85
2022-08-07T03:42:06.107Z,12.84
2022-08-07T03:44:37.509Z,12.82
2022-08-07T03:47:13.287Z,12.84
2022-08-07T03:49:47.778Z,12.80
2022-08-07T03:52:22.661Z,12.85
2022-08-07T03:54:54.547Z,12.77
2022-08-07T03:58:34.862Z,12.79
2022-08-07T04:00:14.304Z,12.73
2022-08-07T04:02:43.051Z,12.75
2022-08-07T04:05:14.057Z,12.75
2022-08-07T04:07:46.321Z,12.76
2022-08-07T04:10:15.669Z,12.76
2022-08-07T04:12:46.452Z,12.76
2022-08-07T04:15:15.834Z,12.74
2022-08-07T04:18:56.559Z,12.74
2022-08-07T04:20:31.660Z,12.75
2022-08-07T04:23:06.187Z,12.75
2022-08-07T04:25:39.130Z,12.73
2022-08-07T04:28:08.107Z,12.65
2022-08-07T04:30:43.994Z,12.67
2022-08-07T04:33:23.929Z,12.61
2022-08-07T04:35:54.365Z,12.67
2022-08-07T04:38:22.189Z,12.68
2022-08-07T04:40:52.625Z,12.67
2022-08-07T04:44:09.947Z,12.69
2022-08-07T04:46:34.414Z,12.67
2022-08-07T04:49:37.777Z,12.63
2022-08-07T04:52:18.626Z,12.66
2022-08-07T04:55:15.190Z,12.70
2022-08-07T04:58:10.149Z,12.77
2022-08-07T05:00:50.210Z,12.83
2022-08-07T05:04:07.717Z,12.89
2022-08-07T05:06:51.595Z,12.96
2022-08-07T05:09:57.394Z,13.02
2022-08-07T05:12:35.029Z,13.10
2022-08-07T05:15:23.638Z,13.14
2022-08-07T05:17:56.550Z,13.14
2022-08-07T05:20:27.121Z,13.23
2022-08-07T05:22:58.385Z,13.25
2022-08-07T05:26:09.889Z,13.36
2022-08-07T05:28:22.613Z,13.48
2022-08-07T05:30:52.811Z,13.58
2022-08-07T05:33:21.532Z,13.71
2022-08-07T05:35:51.170Z,13.79
2022-08-07T05:38:59.451Z,13.92
2022-08-07T05:41:14.423Z,14.02
2022-08-07T05:44:08.613Z,14.16
2022-08-07T05:46:38.161Z,14.31
2022-08-07T05:49:12.536Z,14.42
2022-08-07T05:51:42.185Z,14.49
2022-08-07T05:54:30.208Z,14.64
2022-08-07T05:56:57.680Z,14.80
2022-08-07T05:59:27.286Z,14.93
2022-08-07T06:01:57.314Z,15.02
2022-08-07T06:04:30.087Z,15.14
2022-08-07T06:07:03.645Z,15.23
2022-08-07T06:10:03.702Z,15.36
2022-08-07T06:12:18.393Z,15.48
2022-08-07T06:14:49.495Z,15.62
2022-08-07T06:17:18.051Z,15.77
2022-08-07T06:19:52.391Z,15.90
2022-08-07T06:22:36.889Z,16.04
2022-08-07T06:25:06.451Z,16.12
2022-08-07T06:27:59.687Z,16.28
2022-08-07T06:30:35.302Z,16.39
2022-08-07T06:36:12.918Z,16.72
2022-08-07T06:42:02.123Z,16.98
2022-08-07T06:44:33.942Z,17.15
2022-08-07T06:47:12.371Z,17.42
2022-08-07T06:49:51.826Z,17.54
2022-08-07T06:52:31.928Z,17.71
2022-08-07T06:55:33.474Z,17.94
2022-08-07T06:57:57.187Z,18.21
2022-08-07T07:00:28.394Z,18.45
2022-08-07T07:02:57.679Z,18.59
2022-08-07T07:06:04.954Z,18.75
2022-08-07T07:08:18.313Z,18.94
2022-08-07T07:10:56.597Z,19.05
2022-08-07T07:13:55.536Z,19.28
2022-08-07T07:16:22.112Z,19.49
2022-08-07T07:18:52.473Z,19.53
2022-08-07T07:22:04.030Z,19.68
2022-08-07T07:24:21.249Z,19.72
2022-08-07T07:26:52.544Z,19.72
2022-08-07T07:29:56.017Z,19.89
2022-08-07T07:32:12.276Z,19.99
2022-08-07T07:34:44.178Z,20.13
2022-08-07T07:37:45.367Z,20.27
2022-08-07T07:40:14.806Z,20.21
2022-08-07T07:42:51.128Z,20.14
2022-08-07T07:46:36.989Z,20.10
2022-08-07T07:48:34.753Z,20.31
2022-08-07T07:51:02.632Z,20.56
2022-08-07T07:53:50.342Z,20.75
2022-08-07T07:56:19.432Z,20.70
2022-08-07T07:58:59.921Z,20.88
2022-08-07T08:04:12.742Z,20.95
2022-08-07T08:06:50.827Z,20.93
2022-08-07T08:09:22.708Z,20.91
2022-08-07T08:12:02.179Z,20.82
2022-08-07T08:14:36.576Z,20.94
2022-08-07T08:17:55.464Z,20.92
2022-08-07T08:20:18.779Z,20.86
2022-08-07T08:23:08.234Z,20.94
2022-08-07T08:25:56.544Z,21.01
2022-08-07T08:28:38.409Z,20.87
2022-08-07T08:31:59.296Z,20.76
2022-08-07T08:34:12.370Z,20.60
2022-08-07T08:36:57.819Z,20.37
2022-08-07T08:39:39.328Z,20.56
2022-08-07T08:42:27.495Z,20.58
2022-08-07T08:45:04.245Z,20.72
2022-08-07T08:47:59.199Z,20.99
2022-08-07T08:50:39.172Z,20.96
2022-08-07T08:53:19.698Z,20.72
2022-08-07T08:55:58.533Z,20.91
2022-08-07T08:58:41.358Z,20.70
2022-08-07T09:01:18.478Z,20.74
2022-08-07T09:04:25.967Z,21.05
2022-08-07T09:07:03.450Z,21.13
2022-08-07T09:09:56.568Z,21.25
2022-08-07T09:12:38.079Z,21.46
2022-08-07T09:16:25.227Z,21.12
2022-08-07T09:18:16.855Z,20.77
2022-08-07T09:21:13.752Z,20.84
2022-08-07T09:24:33.425Z,21.13
2022-08-07T09:27:54.497Z,21.19
2022-08-07T09:30:37.301Z,21.10
2022-08-07T09:33:53.087Z,20.83
2022-08-07T09:36:30.195Z,20.83
2022-08-07T09:39:53.706Z,20.96
2022-08-07T09:42:25.048Z,21.27
2022-08-07T09:47:24.221Z,21.36
2022-08-07T09:48:30.158Z,21.53
2022-08-07T09:52:16.368Z,21.36
2022-08-07T09:54:27.204Z,21.45
2022-08-07T09:57:59.411Z,21.31
2022-08-07T10:00:32.536Z,21.24
2022-08-07T10:04:06.492Z,21.44
2022-08-07T10:06:36.510Z,21.55
2022-08-07T10:09:15.340Z,21.54
2022-08-07T10:12:10.513Z,21.46
2022-08-07T10:14:43.235Z,21.60
2022-08-07T10:18:02.546Z,21.81
2022-08-07T10:21:03.717Z,21.77
2022-08-07T10:24:08.695Z,21.79
2022-08-07T10:26:52.966Z,21.39
2022-08-07T10:29:51.835Z,21.21
2022-08-07T10:32:53.369Z,21.53
2022-08-07T10:35:55.837Z,21.84
2022-08-07T10:38:35.754Z,21.73
2022-08-07T10:41:15.302Z,21.92
2022-08-07T10:44:11.698Z,21.98
2022-08-07T10:47:00.595Z,22.07
2022-08-07T10:52:36.590Z,22.02
2022-08-07T10:55:26.824Z,22.13
2022-08-07T10:58:33.203Z,22.20
2022-08-07T11:01:17.380Z,22.08
2022-08-07T11:04:31.660Z,22.36
2022-08-07T11:07:14.846Z,22.05
2022-08-07T11:10:07.390Z,22.11
2022-08-07T11:12:49.186Z,22.27
2022-08-07T11:15:34.240Z,22.10
2022-08-07T11:18:14.413Z,22.20
2022-08-07T11:21:04.400Z,22.43
2022-08-07T11:23:54.247Z,22.63
2022-08-07T11:26:31.338Z,22.74
2022-08-07T11:29:13.202Z,22.67
2022-08-07T11:32:05.476Z,22.71
2022-08-07T11:34:49.092Z,22.63
2022-08-07T11:38:08.814Z,22.75
2022-08-07T11:41:11.118Z,22.77
2022-08-07T11:44:11.785Z,22.90
2022-08-07T11:47:10.005Z,23.02
2022-08-07T11:50:32.671Z,23.24
2022-08-07T11:53:35.272Z,23.05
2022-08-07T11:56:26.700Z,23.00
2022-08-07T12:00:09.819Z,23.19
2022-08-07T12:02:30.640Z,22.96
2022-08-07T12:05:49.196Z,22.90
2022-08-07T12:08:25.861Z,22.88
2022-08-07T12:11:21.953Z,22.97
2022-08-07T12:14:01.654Z,23.01
2022-08-07T12:16:31.568Z,22.88
2022-08-07T12:19:21.996Z,22.97
2022-08-07T12:22:37.500Z,22.80
2022-08-07T12:26:03.215Z,22.75
2022-08-07T12:28:44.871Z,22.87
2022-08-07T12:31:23.780Z,22.95
2022-08-07T12:34:01.133Z,22.93
2022-08-07T12:36:33.287Z,22.89
2022-08-07T12:39:42.362Z,22.81
2022-08-07T12:41:53.829Z,22.79
2022-08-07T12:44:21.607Z,22.99
2022-08-07T12:47:33.230Z,22.89
2022-08-07T12:50:39.537Z,23.07
2022-08-07T12:53:19.061Z,23.22
2022-08-07T12:56:10.407Z,23.22
2022-08-07T12:58:42.905Z,23.08
2022-08-07T13:01:19.331Z,23.13
2022-08-07T13:04:03.156Z,22.81
2022-08-07T13:06:54.346Z,23.09
2022-08-07T13:10:20.565Z,23.25
2022-08-07T13:13:07.864Z,23.36
2022-08-07T13:15:51.177Z,23.50
2022-08-07T13:18:34.197Z,23.62
2022-08-07T13:21:50.417Z,23.68
2022-08-07T13:24:25.826Z,23.50
2022-08-07T13:27:05.934Z,23.64
2022-08-07T13:29:50.907Z,23.75
2022-08-07T13:32:32.753Z,23.75
2022-08-07T13:35:09.361Z,23.78
2022-08-07T13:38:05.032Z,23.84
2022-08-07T13:40:54.200Z,23.84
2022-08-07T13:43:22.584Z,23.93
2022-08-07T13:46:11.999Z,23.95
2022-08-07T13:48:58.582Z,23.84
2022-08-07T13:52:05.011Z,24.03
2022-08-07T13:54:16.446Z,24.25
2022-08-07T13:56:55.830Z,24.22
2022-08-07T13:59:27.524Z,24.22
2022-08-07T14:02:08.370Z,24.00
2022-08-07T14:04:49.378Z,24.15
2022-08-07T14:07:21.320Z,24.24
2022-08-07T14:10:02.013Z,24.34
2022-08-07T14:13:00.831Z,24.15
2022-08-07T14:15:28.368Z,24.21
2022-08-07T14:18:24.187Z,24.42
2022-08-07T14:22:00.458Z,24.50
2022-08-07T14:24:06.198Z,24.36
2022-08-07T14:26:52.313Z,24.64
2022-08-07T14:30:05.140Z,24.61
2022-08-07T14:32:12.887Z,24.22
2022-08-07T14:34:46.020Z,24.09
2022-08-07T14:37:16.854Z,23.93
2022-08-07T14:40:17.214Z,23.93
2022-08-07T14:43:01.454Z,23.80
2022-08-07T14:45:47.058Z,23.86
2022-08-07T14:48:20.359Z,24.03
2022-08-07T14:50:55.222Z,24.23
2022-08-07T14:53:49.489Z,24.22
2022-08-07T14:56:14.032Z,24.33
2022-08-07T14:58:45.104Z,24.28
2022-08-07T15:01:21.814Z,24.21
2022-08-07T15:03:52.170Z,23.76
2022-08-07T15:06:40.141Z,24.12
2022-08-07T15:12:06.728Z,24.16
2022-08-07T15:14:36.027Z,24.00
2022-08-07T15:17:32.482Z,24.01
2022-08-07T15:20:32.475Z,24.01
2022-08-07T15:25:56.882Z,23.76
2022-08-07T15:28:32.930Z,23.72
2022-08-07T15:32:00.470Z,23.62
2022-08-07T15:34:04.878Z,23.54
2022-08-07T15:37:04.605Z,23.57
2022-08-07T15:39:25.885Z,23.69
2022-08-07T15:42:44.103Z,23.67
2022-08-07T15:50:37.797Z,23.56
2022-08-07T15:53:52.006Z,23.14
2022-08-07T15:56:24.555Z,23.11
2022-08-07T15:58:55.085Z,23.04
2022-08-07T16:01:39.161Z,23.01
2022-08-07T16:04:14.675Z,22.93
2022-08-07T16:06:55.731Z,22.95
2022-08-07T16:09:41.013Z,22.86
2022-08-07T16:12:28.499Z,22.92
2022-08-07T16:15:42.112Z,22.89
2022-08-07T16:18:50.004Z,22.75
2022-08-07T16:22:03.218Z,22.52
2022-08-07T16:24:40.633Z,22.35
2022-08-07T16:27:26.459Z,22.32
2022-08-07T16:30:30.864Z,22.24
2022-08-07T16:34:02.031Z,22.12
2022-08-07T16:36:20.337Z,21.92
2022-08-07T16:39:14.945Z,21.71
2022-08-07T16:42:21.597Z,21.63
2022-08-07T16:46:47.251Z,21.56
2022-08-07T16:48:53.839Z,21.61
2022-08-07T16:52:01.989Z,21.57
2022-08-07T16:54:54.883Z,21.47
2022-08-07T16:58:00.987Z,21.49
2022-08-07T17:00:29.777Z,21.45
2022-08-07T17:03:19.257Z,21.28
2022-08-07T17:06:31.097Z,21.32
2022-08-07T17:10:06.419Z,21.26
2022-08-07T17:12:45.216Z,21.31
2022-08-07T17:15:44.734Z,21.30
2022-08-07T17:18:38.618Z,21.30
2022-08-07T17:21:19.040Z,21.13
2022-08-07T17:24:01.932Z,21.16
2022-08-07T17:26:51.329Z,21.16
2022-08-07T17:30:15.779Z,21.09
2022-08-07T17:32:52.863Z,21.18
2022-08-07T17:35:55.388Z,21.08
2022-08-07T17:38:56.911Z,20.99
2022-08-07T17:42:01.943Z,21.03
2022-08-07T17:44:33.574Z,21.15
2022-08-07T17:47:17.013Z,21.15
2022-08-07T17:50:00.874Z,21.02
2022-08-07T17:52:39.696Z,21.01
2022-08-07T17:55:15.969Z,21.04
2022-08-07T17:58:07.169Z,21.04
2022-08-07T18:00:48.388Z,20.99
2022-08-07T18:04:03.642Z,21.05
2022-08-07T18:06:38.546Z,21.02
2022-08-07T18:09:08.697Z,20.94
2022-08-07T18:12:06.676Z,20.97
2022-08-07T18:14:44.897Z,20.92
2022-08-07T18:18:46.460Z,20.99
2022-08-07T18:21:06.352Z,20.79
2022-08-07T18:23:43.050Z,20.60
2022-08-07T18:26:14.727Z,20.48
2022-08-07T18:30:04.514Z,20.48
2022-08-07T18:32:33.638Z,20.40
2022-08-07T18:35:51.778Z,20.38
2022-08-07T18:38:57.755Z,20.30
2022-08-07T18:41:46.738Z,20.25
2022-08-07T18:44:25.228Z,20.19
2022-08-07T18:47:20.947Z,20.12
2022-08-07T18:50:35.424Z,20.00
2022-08-07T18:53:13.005Z,20.02
2022-08-07T18:56:07.639Z,19.98
2022-08-07T18:58:59.590Z,19.88
2022-08-07T19:02:18.037Z,19.82
2022-08-07T19:05:15.588Z,19.70
2022-08-07T19:07:58.787Z,19.63
2022-08-07T19:10:51.904Z,19.62
2022-08-07T19:13:43.874Z,19.61
2022-08-07T19:17:04.212Z,19.64
2022-08-07T19:19:41.295Z,19.52
2022-08-07T19:22:31.368Z,19.42
2022-08-07T19:25:06.403Z,19.36
2022-08-07T19:28:57.738Z,19.28
2022-08-07T19:31:05.751Z,19.27
2022-08-07T19:33:18.820Z,19.20
2022-08-07T19:36:01.689Z,19.16
2022-08-07T19:38:32.090Z,19.10
2022-08-07T19:41:00.555Z,18.98
2022-08-07T19:43:48.816Z,18.91
2022-08-07T19:46:26.388Z,18.91
2022-08-07T19:49:16.230Z,18.86
2022-08-07T19:51:53.030Z,18.81
2022-08-07T19:54:33.984Z,18.76
2022-08-07T19:57:59.983Z,18.72
2022-08-07T19:59:59.715Z,18.66
2022-08-07T20:02:33.480Z,18.66
2022-08-07T20:05:04.021Z,18.59
2022-08-07T20:07:47.855Z,18.53
2022-08-07T20:10:37.291Z,18.49
2022-08-07T20:13:22.861Z,18.49
2022-08-07T20:15:51.731Z,18.41
2022-08-07T20:18:21.918Z,18.40
2022-08-07T20:21:02.428Z,18.44
2022-08-07T20:23:41.599Z,18.37
2022-08-07T20:26:15.326Z,18.33
2022-08-07T20:28:59.181Z,18.29
2022-08-07T20:31:27.997Z,18.28
2022-08-07T20:33:57.540Z,18.28
2022-08-07T20:36:27.280Z,18.22
2022-08-07T20:39:00.364Z,18.15
2022-08-07T20:41:38.423Z,18.22
2022-08-07T20:44:10.451Z,18.30
2022-08-07T20:46:43.773Z,18.28
2022-08-07T20:50:00.583Z,18.19
2022-08-07T20:52:01.899Z,18.17
2022-08-07T20:54:33.278Z,18.17
2022-08-07T20:57:06.847Z,18.08
2022-08-07T21:00:07.010Z,18.04
2022-08-07T21:02:54.314Z,18.10
2022-08-07T21:05:25.724Z,18.11
2022-08-07T21:08:16.458Z,18.09
2022-08-07T21:10:49.267Z,18.08
2022-08-07T21:13:24.709Z,18.14
2022-08-07T21:16:09.128Z,18.09
2022-08-07T21:18:41.245Z,18.05
2022-08-07T21:21:16.459Z,18.02
2022-08-07T21:24:05.980Z,18.02
2022-08-07T21:26:53.633Z,18.01
2022-08-07T21:29:33.438Z,17.91
2022-08-07T21:32:43.776Z,17.87
2022-08-07T21:36:06.495Z,17.87
2022-08-07T21:38:45.725Z,17.95
2022-08-07T21:41:27.057Z,17.99
2022-08-07T21:44:34.494Z,17.87
2022-08-07T21:47:23.637Z,17.95
2022-08-07T21:50:03.287Z,17.85
2022-08-07T21:52:59.954Z,17.84
2022-08-07T21:55:57.228Z,17.86
2022-08-07T21:58:35.262Z,17.93
2022-08-07T22:01:20.745Z,17.93
2022-08-07T22:04:20.174Z,17.91
2022-08-07T22:06:57.564Z,17.84
2022-08-07T22:09:34.737Z,17.77
2022-08-07T22:12:34.827Z,17.82
2022-08-07T22:16:45.173Z,17.78
2022-08-07T22:18:07.183Z,17.69
2022-08-07T22:21:12.866Z,17.79
2022-08-07T22:24:16.155Z,17.76
2022-08-07T22:26:49.476Z,17.73
2022-08-07T22:29:33.818Z,17.67
2022-08-07T22:32:06.857Z,17.72
2022-08-07T22:34:55.543Z,17.80
2022-08-07T22:38:03.455Z,17.80
2022-08-07T22:40:49.556Z,17.73
2022-08-07T22:43:31.366Z,17.76
2022-08-07T22:47:02.265Z,17.71
2022-08-07T22:49:39.793Z,17.66
2022-08-07T22:52:51.190Z,17.65
2022-08-07T22:55:47.450Z,17.59
2022-08-07T22:58:42.645Z,17.62
2022-08-07T23:01:50.810Z,17.65
2022-08-07T23:04:58.099Z,17.65
2022-08-07T23:08:05.824Z,17.63
2022-08-07T23:10:48.825Z,17.69
2022-08-07T23:14:15.309Z,17.66
2022-08-07T23:17:24.693Z,17.65
2022-08-07T23:20:40.563Z,17.64
2022-08-07T23:24:05.396Z,17.63
2022-08-07T23:26:35.523Z,17.50
2022-08-07T23:29:44.070Z,17.52
2022-08-07T23:34:20.879Z,17.48
2022-08-07T23:35:28.301Z,17.50
2022-08-07T23:38:36.820Z,17.56
2022-08-07T23:41:33.446Z,17.55
2022-08-07T23:44:09.010Z,17.48
2022-08-07T23:47:12.562Z,17.41
2022-08-07T23:50:00.994Z,17.36
2022-08-07T23:52:59.624Z,17.43
2022-08-07T23:55:55.675Z,17.37
2022-08-07T23:58:37.222Z,17.37
